FDX1679 KIAD-KIND
Flight info
| Callsign | FDX1679 |
|---|---|
| Flight time | 1h 12m |
| Altitude | 28000 |
| Route | BUNZZ3 RAMAY Q72 HACKS PLASH SNKPT2 |
| Aircraft | B77L/H-SDE1E2E3FGHIJ1J2J3J4J5M1P1P2P3RWXYZ/LB1D1 |
Departure
| Time | 2026-05-07 17:46 |
|---|---|
| Airport | Washington Dulles International Airport (KIAD) |
Arrival
| Time | 2026-05-07 18:59 |
|---|---|
| Airport | Indianapolis International Airport (KIND) |
| Time | Latitude | Longitude | Altitude | Speed | Heading |
|---|---|---|---|---|---|
| 2026-05-07 17:29 | 38.95987 | -77.45416 | 305 ft | 0 kts | 89° |
| 2026-05-07 17:35 | 38.95987 | -77.45444 | 305 ft | 4 kts | 89° |
| 2026-05-07 17:36 | 38.95987 | -77.45472 | 305 ft | 4 kts | 122° |
| 2026-05-07 17:36 | 38.96005 | -77.45485 | 304 ft | 4 kts | 179° |
| 2026-05-07 17:36 | 38.96032 | -77.45483 | 304 ft | 4 kts | 183° |
| 2026-05-07 17:36 | 38.96042 | -77.45483 | 304 ft | 1 kts | 181° |
| 2026-05-07 17:39 | 38.96036 | -77.45483 | 306 ft | 5 kts | 181° |
| 2026-05-07 17:40 | 38.95961 | -77.45484 | 306 ft | 16 kts | 181° |
| 2026-05-07 17:40 | 38.95851 | -77.45486 | 306 ft | 13 kts | 181° |
| 2026-05-07 17:40 | 38.95753 | -77.45508 | 306 ft | 13 kts | 195° |
| 2026-05-07 17:40 | 38.95674 | -77.45587 | 305 ft | 18 kts | 197° |
| 2026-05-07 17:41 | 38.95536 | -77.45596 | 307 ft | 22 kts | 180° |
| 2026-05-07 17:41 | 38.95374 | -77.45598 | 306 ft | 25 kts | 180° |
| 2026-05-07 17:41 | 38.95194 | -77.45600 | 306 ft | 27 kts | 181° |
| 2026-05-07 17:41 | 38.94999 | -77.45604 | 309 ft | 29 kts | 181° |
| 2026-05-07 17:42 | 38.94798 | -77.45607 | 307 ft | 29 kts | 181° |
| 2026-05-07 17:42 | 38.94608 | -77.45610 | 309 ft | 25 kts | 180° |
| 2026-05-07 17:42 | 38.94464 | -77.45612 | 307 ft | 19 kts | 181° |
| 2026-05-07 17:42 | 38.94333 | -77.45615 | 306 ft | 19 kts | 181° |
| 2026-05-07 17:43 | 38.94199 | -77.45615 | 307 ft | 20 kts | 180° |
| 2026-05-07 17:43 | 38.94059 | -77.45618 | 306 ft | 21 kts | 181° |
| 2026-05-07 17:43 | 38.93915 | -77.45619 | 306 ft | 19 kts | 180° |
| 2026-05-07 17:43 | 38.93798 | -77.45620 | 306 ft | 15 kts | 180° |
| 2026-05-07 17:44 | 38.93707 | -77.45612 | 306 ft | 12 kts | 154° |
| 2026-05-07 17:44 | 38.93651 | -77.45536 | 307 ft | 12 kts | 131° |
| 2026-05-07 17:44 | 38.93577 | -77.45501 | 305 ft | 13 kts | 193° |
| 2026-05-07 17:44 | 38.93503 | -77.45537 | 305 ft | 7 kts | 201° |
| 2026-05-07 17:45 | 38.93450 | -77.45563 | 305 ft | 9 kts | 201° |
| 2026-05-07 17:45 | 38.93387 | -77.45608 | 304 ft | 10 kts | 234° |
| 2026-05-07 17:45 | 38.93393 | -77.45698 | 306 ft | 16 kts | 288° |
| 2026-05-07 17:45 | 38.93489 | -77.46029 | 307 ft | 73 kts | 290° |
| 2026-05-07 17:46 | 38.93764 | -77.46963 | 307 ft | 149 kts | 291° |
| 2026-05-07 17:46 | 38.94197 | -77.48462 | 502 ft | 194 kts | 290° |
| 2026-05-07 17:46 | 38.94614 | -77.50062 | 1447 ft | 190 kts | 280° |
| 2026-05-07 17:46 | 38.94410 | -77.51815 | 1690 ft | 211 kts | 251° |
| 2026-05-07 17:47 | 38.93902 | -77.53640 | 2170 ft | 224 kts | 253° |
| 2026-05-07 17:47 | 38.93383 | -77.55632 | 2546 ft | 241 kts | 253° |
| 2026-05-07 17:47 | 38.92852 | -77.57704 | 3194 ft | 248 kts | 253° |
| 2026-05-07 17:47 | 38.92315 | -77.59839 | 3866 ft | 253 kts | 253° |
| 2026-05-07 17:48 | 38.91774 | -77.62008 | 4692 ft | 256 kts | 255° |
| 2026-05-07 17:48 | 38.91240 | -77.64168 | 5639 ft | 251 kts | 255° |
| 2026-05-07 17:48 | 38.90716 | -77.66296 | 6513 ft | 249 kts | 255° |
| 2026-05-07 17:48 | 38.90189 | -77.68423 | 7212 ft | 249 kts | 254° |
| 2026-05-07 17:49 | 38.89680 | -77.70496 | 8113 ft | 243 kts | 253° |
| 2026-05-07 17:49 | 38.89294 | -77.72625 | 8793 ft | 247 kts | 261° |
| 2026-05-07 17:49 | 38.89074 | -77.74798 | 9629 ft | 244 kts | 261° |
| 2026-05-07 17:49 | 38.88873 | -77.76969 | 10342 ft | 247 kts | 261° |
| 2026-05-07 17:50 | 38.88656 | -77.79235 | 10616 ft | 267 kts | 261° |
| 2026-05-07 17:50 | 38.88410 | -77.81695 | 10808 ft | 290 kts | 261° |
| 2026-05-07 17:50 | 38.88136 | -77.84361 | 10995 ft | 313 kts | 261° |
| 2026-05-07 17:50 | 38.87839 | -77.87201 | 11496 ft | 326 kts | 261° |
| 2026-05-07 17:51 | 38.87534 | -77.90107 | 12266 ft | 330 kts | 261° |
| 2026-05-07 17:51 | 38.87538 | -77.93084 | 12949 ft | 341 kts | 275° |
| 2026-05-07 17:51 | 38.88191 | -77.96041 | 13847 ft | 349 kts | 286° |
| 2026-05-07 17:51 | 38.89095 | -77.98950 | 14609 ft | 352 kts | 287° |
| 2026-05-07 17:52 | 38.89962 | -78.01682 | 15390 ft | 353 kts | 287° |
| 2026-05-07 17:52 | 38.90884 | -78.04606 | 16225 ft | 354 kts | 286° |
| 2026-05-07 17:52 | 38.91804 | -78.07556 | 17030 ft | 357 kts | 286° |
| 2026-05-07 17:52 | 38.92723 | -78.10531 | 17841 ft | 359 kts | 286° |
| 2026-05-07 17:53 | 38.93330 | -78.12511 | 18353 ft | 360 kts | 285° |
| 2026-05-07 17:53 | 38.94546 | -78.16490 | 19321 ft | 362 kts | 284° |
| 2026-05-07 17:53 | 38.95462 | -78.19497 | 20072 ft | 362 kts | 284° |
| 2026-05-07 17:53 | 38.96215 | -78.22553 | 20768 ft | 355 kts | 274° |
| 2026-05-07 17:54 | 38.96455 | -78.25669 | 21342 ft | 351 kts | 269° |
| 2026-05-07 17:54 | 38.96628 | -78.28819 | 21963 ft | 355 kts | 269° |
| 2026-05-07 17:54 | 38.96748 | -78.30915 | 22480 ft | 353 kts | 268° |
| 2026-05-07 17:54 | 38.96935 | -78.34062 | 23286 ft | 353 kts | 268° |
| 2026-05-07 17:55 | 38.97127 | -78.37209 | 23917 ft | 354 kts | 268° |
| 2026-05-07 17:55 | 38.97322 | -78.40378 | 24405 ft | 357 kts | 268° |
| 2026-05-07 17:55 | 38.97522 | -78.43566 | 24958 ft | 358 kts | 268° |
| 2026-05-07 17:55 | 38.97723 | -78.46759 | 25538 ft | 359 kts | 268° |
| 2026-05-07 17:56 | 38.97925 | -78.49961 | 26074 ft | 360 kts | 268° |
| 2026-05-07 17:56 | 38.98128 | -78.53177 | 26601 ft | 362 kts | 268° |
| 2026-05-07 17:56 | 38.98330 | -78.56409 | 27107 ft | 364 kts | 268° |
| 2026-05-07 17:56 | 38.98533 | -78.59658 | 27600 ft | 365 kts | 268° |
| 2026-05-07 17:57 | 38.98735 | -78.62932 | 27907 ft | 370 kts | 268° |
| 2026-05-07 17:57 | 38.98939 | -78.66273 | 27923 ft | 378 kts | 268° |
| 2026-05-07 17:57 | 38.99146 | -78.69679 | 27959 ft | 385 kts | 268° |
| 2026-05-07 17:57 | 38.99351 | -78.73086 | 27916 ft | 389 kts | 268° |
| 2026-05-07 17:58 | 38.99570 | -78.76597 | 27917 ft | 389 kts | 268° |
| 2026-05-07 17:58 | 38.99783 | -78.80014 | 27907 ft | 389 kts | 268° |
| 2026-05-07 17:58 | 38.99996 | -78.83471 | 27909 ft | 388 kts | 268° |
| 2026-05-07 17:58 | 39.00204 | -78.86891 | 27904 ft | 387 kts | 268° |
| 2026-05-07 17:59 | 39.00413 | -78.90337 | 27908 ft | 386 kts | 268° |
| 2026-05-07 17:59 | 39.00616 | -78.93786 | 27901 ft | 387 kts | 268° |
| 2026-05-07 17:59 | 39.00818 | -78.97230 | 27890 ft | 386 kts | 268° |
| 2026-05-07 17:59 | 39.01011 | -79.00510 | 27917 ft | 386 kts | 268° |
| 2026-05-07 18:00 | 39.01214 | -79.03956 | 27910 ft | 386 kts | 268° |
| 2026-05-07 18:00 | 39.01415 | -79.07404 | 27972 ft | 386 kts | 268° |
| 2026-05-07 18:00 | 39.01616 | -79.10850 | 27937 ft | 386 kts | 268° |
| 2026-05-07 18:00 | 39.01816 | -79.14302 | 27923 ft | 387 kts | 268° |
| 2026-05-07 18:01 | 39.02015 | -79.17746 | 27931 ft | 386 kts | 268° |
| 2026-05-07 18:01 | 39.02229 | -79.21192 | 27927 ft | 386 kts | 268° |
| 2026-05-07 18:01 | 39.02454 | -79.24637 | 27933 ft | 387 kts | 268° |
| 2026-05-07 18:01 | 39.02680 | -79.28042 | 27927 ft | 387 kts | 268° |
| 2026-05-07 18:02 | 39.03136 | -79.34930 | 27932 ft | 386 kts | 269° |
| 2026-05-07 18:02 | 39.03361 | -79.38373 | 27933 ft | 386 kts | 268° |
| 2026-05-07 18:02 | 39.03586 | -79.41819 | 27941 ft | 386 kts | 268° |
| 2026-05-07 18:03 | 39.03806 | -79.45265 | 27961 ft | 387 kts | 269° |
| 2026-05-07 18:03 | 39.04025 | -79.48712 | 27948 ft | 387 kts | 268° |
| 2026-05-07 18:03 | 39.04243 | -79.52168 | 27959 ft | 388 kts | 269° |
| 2026-05-07 18:03 | 39.04459 | -79.55630 | 27924 ft | 388 kts | 268° |
| 2026-05-07 18:04 | 39.04678 | -79.59084 | 27947 ft | 388 kts | 269° |
| 2026-05-07 18:04 | 39.04895 | -79.62553 | 27929 ft | 388 kts | 269° |
| 2026-05-07 18:04 | 39.05117 | -79.66016 | 27955 ft | 389 kts | 269° |
| 2026-05-07 18:04 | 39.05325 | -79.69440 | 27928 ft | 389 kts | 268° |
| 2026-05-07 18:05 | 39.05534 | -79.72905 | 27956 ft | 389 kts | 269° |
| 2026-05-07 18:05 | 39.05748 | -79.76372 | 27962 ft | 388 kts | 269° |
| 2026-05-07 18:05 | 39.05960 | -79.79838 | 28007 ft | 389 kts | 269° |
| 2026-05-07 18:05 | 39.06171 | -79.83310 | 27964 ft | 390 kts | 269° |
| 2026-05-07 18:06 | 39.06381 | -79.86792 | 27961 ft | 391 kts | 269° |
| 2026-05-07 18:06 | 39.06592 | -79.90287 | 27953 ft | 392 kts | 269° |
| 2026-05-07 18:06 | 39.06802 | -79.93784 | 27960 ft | 392 kts | 269° |
| 2026-05-07 18:06 | 39.07009 | -79.97283 | 27952 ft | 392 kts | 269° |
| 2026-05-07 18:07 | 39.07205 | -80.00602 | 27965 ft | 392 kts | 269° |
| 2026-05-07 18:07 | 39.07411 | -80.04105 | 27966 ft | 392 kts | 269° |
| 2026-05-07 18:07 | 39.07619 | -80.07610 | 27963 ft | 392 kts | 269° |
| 2026-05-07 18:07 | 39.07823 | -80.11107 | 27963 ft | 392 kts | 269° |
| 2026-05-07 18:08 | 39.08026 | -80.14617 | 27953 ft | 392 kts | 269° |
| 2026-05-07 18:08 | 39.08224 | -80.18073 | 27987 ft | 392 kts | 269° |
| 2026-05-07 18:08 | 39.08425 | -80.21588 | 27958 ft | 394 kts | 269° |
| 2026-05-07 18:08 | 39.08627 | -80.25111 | 27963 ft | 395 kts | 269° |
| 2026-05-07 18:09 | 39.08827 | -80.28642 | 27957 ft | 396 kts | 269° |
| 2026-05-07 18:09 | 39.09027 | -80.32188 | 27950 ft | 397 kts | 269° |
| 2026-05-07 18:09 | 39.09218 | -80.35743 | 27950 ft | 398 kts | 269° |
| 2026-05-07 18:09 | 39.09404 | -80.39303 | 27948 ft | 398 kts | 269° |
| 2026-05-07 18:10 | 39.09591 | -80.42859 | 27949 ft | 398 kts | 269° |
| 2026-05-07 18:10 | 39.09777 | -80.46423 | 27954 ft | 399 kts | 269° |
| 2026-05-07 18:10 | 39.09963 | -80.49981 | 27948 ft | 399 kts | 269° |
| 2026-05-07 18:10 | 39.10148 | -80.53545 | 27942 ft | 399 kts | 269° |
| 2026-05-07 18:11 | 39.10331 | -80.57111 | 27959 ft | 399 kts | 270° |
| 2026-05-07 18:11 | 39.10451 | -80.59476 | 27956 ft | 400 kts | 270° |
| 2026-05-07 18:11 | 39.10695 | -80.64258 | 27965 ft | 401 kts | 270° |
| 2026-05-07 18:11 | 39.10874 | -80.67795 | 27952 ft | 401 kts | 270° |
| 2026-05-07 18:12 | 39.11056 | -80.71378 | 27957 ft | 401 kts | 270° |
| 2026-05-07 18:12 | 39.11236 | -80.74966 | 27948 ft | 402 kts | 270° |
| 2026-05-07 18:12 | 39.11415 | -80.78560 | 27964 ft | 402 kts | 269° |
| 2026-05-07 18:12 | 39.11592 | -80.82149 | 27956 ft | 402 kts | 269° |
| 2026-05-07 18:13 | 39.11769 | -80.85750 | 27953 ft | 402 kts | 269° |
| 2026-05-07 18:13 | 39.11946 | -80.89346 | 27951 ft | 402 kts | 269° |
| 2026-05-07 18:13 | 39.12118 | -80.92943 | 27971 ft | 403 kts | 270° |
| 2026-05-07 18:13 | 39.12293 | -80.96548 | 27978 ft | 404 kts | 270° |
| 2026-05-07 18:14 | 39.12464 | -81.00084 | 27969 ft | 405 kts | 270° |
| 2026-05-07 18:14 | 39.12643 | -81.03604 | 27959 ft | 406 kts | 271° |
| 2026-05-07 18:14 | 39.13043 | -81.07216 | 27979 ft | 410 kts | 276° |
| 2026-05-07 18:14 | 39.13631 | -81.10814 | 27959 ft | 412 kts | 278° |
| 2026-05-07 18:15 | 39.14346 | -81.14356 | 27977 ft | 415 kts | 281° |
| 2026-05-07 18:15 | 39.15287 | -81.17883 | 27984 ft | 417 kts | 283° |
| 2026-05-07 18:15 | 39.16291 | -81.21399 | 27984 ft | 418 kts | 284° |
| 2026-05-07 18:15 | 39.17304 | -81.24907 | 27964 ft | 418 kts | 284° |
| 2026-05-07 18:16 | 39.18319 | -81.28422 | 27995 ft | 417 kts | 284° |
| 2026-05-07 18:16 | 39.19326 | -81.31932 | 27987 ft | 418 kts | 284° |
| 2026-05-07 18:16 | 39.20332 | -81.35452 | 27983 ft | 419 kts | 284° |
| 2026-05-07 18:16 | 39.21335 | -81.38975 | 27982 ft | 419 kts | 284° |
| 2026-05-07 18:17 | 39.22336 | -81.42508 | 27987 ft | 419 kts | 284° |
| 2026-05-07 18:17 | 39.23336 | -81.46044 | 27980 ft | 419 kts | 284° |
| 2026-05-07 18:17 | 39.24335 | -81.49583 | 27982 ft | 420 kts | 284° |
| 2026-05-07 18:17 | 39.25331 | -81.53122 | 27985 ft | 420 kts | 284° |
| 2026-05-07 18:18 | 39.26327 | -81.56666 | 27974 ft | 420 kts | 284° |
| 2026-05-07 18:18 | 39.27324 | -81.60216 | 27977 ft | 420 kts | 284° |
| 2026-05-07 18:18 | 39.28320 | -81.63764 | 28018 ft | 421 kts | 284° |
| 2026-05-07 18:18 | 39.29317 | -81.67324 | 27991 ft | 423 kts | 285° |
| 2026-05-07 18:19 | 39.30304 | -81.70853 | 27990 ft | 424 kts | 285° |
| 2026-05-07 18:19 | 39.31304 | -81.74432 | 27989 ft | 424 kts | 285° |
| 2026-05-07 18:19 | 39.32306 | -81.78024 | 27983 ft | 425 kts | 285° |
| 2026-05-07 18:19 | 39.33306 | -81.81615 | 27991 ft | 425 kts | 285° |
| 2026-05-07 18:20 | 39.34305 | -81.85204 | 27993 ft | 425 kts | 285° |
| 2026-05-07 18:20 | 39.35307 | -81.88811 | 27990 ft | 425 kts | 285° |
| 2026-05-07 18:20 | 39.36304 | -81.92403 | 27992 ft | 425 kts | 285° |
| 2026-05-07 18:20 | 39.37300 | -81.95998 | 27999 ft | 425 kts | 285° |
| 2026-05-07 18:21 | 39.38295 | -81.99596 | 28000 ft | 424 kts | 285° |
| 2026-05-07 18:21 | 39.39234 | -82.02990 | 27996 ft | 423 kts | 285° |
| 2026-05-07 18:21 | 39.40223 | -82.06574 | 27989 ft | 424 kts | 285° |
| 2026-05-07 18:21 | 39.41212 | -82.10168 | 27982 ft | 424 kts | 285° |
| 2026-05-07 18:22 | 39.42198 | -82.13756 | 27994 ft | 423 kts | 285° |
| 2026-05-07 18:22 | 39.42851 | -82.16135 | 27990 ft | 423 kts | 285° |
| 2026-05-07 18:22 | 39.44168 | -82.20934 | 27999 ft | 423 kts | 285° |
| 2026-05-07 18:22 | 39.45151 | -82.24523 | 27995 ft | 423 kts | 285° |
| 2026-05-07 18:23 | 39.46133 | -82.28114 | 28003 ft | 423 kts | 285° |
| 2026-05-07 18:23 | 39.48093 | -82.35300 | 27999 ft | 424 kts | 285° |
| 2026-05-07 18:23 | 39.49059 | -82.38849 | 27997 ft | 424 kts | 285° |
| 2026-05-07 18:24 | 39.50041 | -82.42454 | 28003 ft | 424 kts | 285° |
| 2026-05-07 18:24 | 39.51020 | -82.46054 | 28000 ft | 424 kts | 285° |
| 2026-05-07 18:24 | 39.52000 | -82.49659 | 27997 ft | 424 kts | 285° |
| 2026-05-07 18:25 | 39.53954 | -82.56874 | 28011 ft | 424 kts | 285° |
| 2026-05-07 18:25 | 39.55900 | -82.64084 | 28009 ft | 423 kts | 285° |
| 2026-05-07 18:26 | 39.57840 | -82.71296 | 28051 ft | 423 kts | 285° |
| 2026-05-07 18:26 | 39.59778 | -82.78515 | 28035 ft | 424 kts | 285° |
| 2026-05-07 18:27 | 39.61706 | -82.85718 | 28023 ft | 421 kts | 285° |
| 2026-05-07 18:27 | 39.63607 | -82.92838 | 28013 ft | 419 kts | 285° |
| 2026-05-07 18:28 | 39.65505 | -82.99971 | 28015 ft | 418 kts | 285° |
| 2026-05-07 18:28 | 39.67343 | -83.06898 | 28019 ft | 417 kts | 284° |
| 2026-05-07 18:29 | 39.69230 | -83.14033 | 28017 ft | 418 kts | 284° |
| 2026-05-07 18:29 | 39.71115 | -83.21178 | 28032 ft | 418 kts | 285° |
| 2026-05-07 18:30 | 39.72991 | -83.28305 | 28028 ft | 417 kts | 285° |
| 2026-05-07 18:30 | 39.74847 | -83.35382 | 28034 ft | 416 kts | 285° |
| 2026-05-07 18:31 | 39.76708 | -83.42495 | 28031 ft | 415 kts | 285° |
| 2026-05-07 18:31 | 39.78564 | -83.49613 | 28041 ft | 415 kts | 285° |
| 2026-05-07 18:32 | 39.80413 | -83.56722 | 28033 ft | 415 kts | 285° |
| 2026-05-07 18:32 | 39.82260 | -83.63844 | 28038 ft | 415 kts | 285° |
| 2026-05-07 18:33 | 39.84103 | -83.70971 | 28034 ft | 415 kts | 285° |
| 2026-05-07 18:33 | 39.85942 | -83.78105 | 28037 ft | 415 kts | 285° |
| 2026-05-07 18:34 | 39.87776 | -83.85240 | 28047 ft | 416 kts | 284° |
| 2026-05-07 18:34 | 39.89596 | -83.92338 | 28047 ft | 415 kts | 284° |
| 2026-05-07 18:35 | 39.91417 | -83.99459 | 28030 ft | 414 kts | 284° |
| 2026-05-07 18:35 | 39.92870 | -84.05162 | 28027 ft | 413 kts | 284° |
| 2026-05-07 18:36 | 39.94979 | -84.13459 | 28044 ft | 411 kts | 284° |
| 2026-05-07 18:36 | 39.96469 | -84.19339 | 28046 ft | 411 kts | 284° |
| 2026-05-07 18:37 | 39.98260 | -84.26428 | 28044 ft | 412 kts | 284° |
| 2026-05-07 18:37 | 40.00045 | -84.33509 | 28048 ft | 411 kts | 284° |
| 2026-05-07 18:38 | 40.01823 | -84.40598 | 28038 ft | 411 kts | 284° |
| 2026-05-07 18:38 | 40.03466 | -84.47735 | 28042 ft | 410 kts | 283° |
| 2026-05-07 18:39 | 40.05061 | -84.54851 | 28030 ft | 406 kts | 283° |
| 2026-05-07 18:39 | 40.06648 | -84.61873 | 28036 ft | 399 kts | 283° |
| 2026-05-07 18:39 | 40.07415 | -84.65255 | 28027 ft | 387 kts | 283° |
| 2026-05-07 18:40 | 40.08174 | -84.68608 | 27515 ft | 385 kts | 283° |
| 2026-05-07 18:40 | 40.08926 | -84.71948 | 26969 ft | 380 kts | 283° |
| 2026-05-07 18:40 | 40.09661 | -84.75245 | 26357 ft | 376 kts | 283° |
| 2026-05-07 18:40 | 40.10385 | -84.78513 | 25755 ft | 372 kts | 283° |
| 2026-05-07 18:41 | 40.11099 | -84.81746 | 25141 ft | 369 kts | 282° |
| 2026-05-07 18:41 | 40.11806 | -84.84955 | 24547 ft | 366 kts | 282° |
| 2026-05-07 18:41 | 40.12510 | -84.88151 | 23955 ft | 364 kts | 282° |
| 2026-05-07 18:41 | 40.13207 | -84.91317 | 23346 ft | 362 kts | 282° |
| 2026-05-07 18:42 | 40.13891 | -84.94431 | 22704 ft | 359 kts | 282° |
| 2026-05-07 18:42 | 40.14577 | -84.97550 | 22179 ft | 355 kts | 282° |
| 2026-05-07 18:42 | 40.15207 | -85.00421 | 21642 ft | 352 kts | 282° |
| 2026-05-07 18:42 | 40.15878 | -85.03486 | 21085 ft | 349 kts | 282° |
| 2026-05-07 18:43 | 40.16542 | -85.06525 | 20553 ft | 346 kts | 283° |
| 2026-05-07 18:43 | 40.17202 | -85.09544 | 20027 ft | 344 kts | 283° |
| 2026-05-07 18:43 | 40.17856 | -85.12540 | 19518 ft | 342 kts | 283° |
| 2026-05-07 18:43 | 40.18507 | -85.15528 | 19005 ft | 340 kts | 283° |
| 2026-05-07 18:44 | 40.19152 | -85.18492 | 18502 ft | 339 kts | 283° |
| 2026-05-07 18:44 | 40.19798 | -85.21451 | 17935 ft | 338 kts | 283° |
| 2026-05-07 18:44 | 40.20443 | -85.24393 | 17382 ft | 336 kts | 283° |
| 2026-05-07 18:44 | 40.21084 | -85.27322 | 16875 ft | 333 kts | 284° |
| 2026-05-07 18:45 | 40.21718 | -85.30221 | 16376 ft | 330 kts | 284° |
| 2026-05-07 18:45 | 40.22346 | -85.33101 | 15887 ft | 328 kts | 284° |
| 2026-05-07 18:45 | 40.22958 | -85.35968 | 15402 ft | 321 kts | 282° |
| 2026-05-07 18:45 | 40.23089 | -85.38821 | 14945 ft | 320 kts | 266° |
| 2026-05-07 18:46 | 40.22659 | -85.41683 | 14508 ft | 324 kts | 256° |
| 2026-05-07 18:46 | 40.21705 | -85.44405 | 14052 ft | 335 kts | 245° |
| 2026-05-07 18:46 | 40.20519 | -85.47094 | 13549 ft | 347 kts | 244° |
| 2026-05-07 18:46 | 40.19291 | -85.49837 | 13027 ft | 350 kts | 244° |
| 2026-05-07 18:47 | 40.18070 | -85.52582 | 12521 ft | 348 kts | 244° |
| 2026-05-07 18:47 | 40.16878 | -85.55304 | 12049 ft | 343 kts | 244° |
| 2026-05-07 18:47 | 40.15705 | -85.58006 | 11653 ft | 337 kts | 244° |
| 2026-05-07 18:47 | 40.14576 | -85.60611 | 11524 ft | 321 kts | 244° |
| 2026-05-07 18:48 | 40.13514 | -85.63063 | 11303 ft | 298 kts | 244° |
| 2026-05-07 18:48 | 40.12533 | -85.65352 | 11105 ft | 282 kts | 245° |
| 2026-05-07 18:48 | 40.11592 | -85.67561 | 10888 ft | 274 kts | 245° |
| 2026-05-07 18:48 | 40.10688 | -85.69683 | 10679 ft | 266 kts | 245° |
| 2026-05-07 18:49 | 40.09788 | -85.71793 | 10473 ft | 260 kts | 244° |
| 2026-05-07 18:49 | 40.08923 | -85.73821 | 10296 ft | 259 kts | 244° |
| 2026-05-07 18:49 | 40.08044 | -85.75876 | 10107 ft | 259 kts | 244° |
| 2026-05-07 18:49 | 40.07164 | -85.77933 | 9893 ft | 260 kts | 244° |
| 2026-05-07 18:50 | 40.06279 | -85.79998 | 9681 ft | 260 kts | 244° |
| 2026-05-07 18:50 | 40.05373 | -85.82042 | 9470 ft | 261 kts | 242° |
| 2026-05-07 18:50 | 40.04402 | -85.84046 | 9272 ft | 261 kts | 241° |
| 2026-05-07 18:50 | 40.03427 | -85.86042 | 9059 ft | 261 kts | 241° |
| 2026-05-07 18:51 | 40.02369 | -85.87975 | 8758 ft | 264 kts | 232° |
| 2026-05-07 18:51 | 40.01120 | -85.89719 | 8460 ft | 262 kts | 229° |
| 2026-05-07 18:51 | 39.99848 | -85.91400 | 8125 ft | 258 kts | 229° |
| 2026-05-07 18:51 | 39.98595 | -85.93058 | 7810 ft | 255 kts | 229° |
| 2026-05-07 18:52 | 39.97351 | -85.94719 | 7513 ft | 256 kts | 229° |
| 2026-05-07 18:52 | 39.96121 | -85.96374 | 7192 ft | 258 kts | 229° |
| 2026-05-07 18:52 | 39.94870 | -85.98060 | 6861 ft | 258 kts | 229° |
| 2026-05-07 18:52 | 39.93633 | -85.99741 | 6550 ft | 257 kts | 229° |
| 2026-05-07 18:53 | 39.92467 | -86.01323 | 6255 ft | 255 kts | 230° |
| 2026-05-07 18:53 | 39.91270 | -86.03015 | 5927 ft | 254 kts | 231° |
| 2026-05-07 18:53 | 39.90571 | -86.04014 | 5769 ft | 251 kts | 230° |
| 2026-05-07 18:53 | 39.89398 | -86.05597 | 5425 ft | 235 kts | 228° |
| 2026-05-07 18:54 | 39.88269 | -86.07065 | 5151 ft | 226 kts | 229° |
| 2026-05-07 18:54 | 39.87149 | -86.08506 | 4871 ft | 226 kts | 228° |
| 2026-05-07 18:54 | 39.86031 | -86.09939 | 4536 ft | 224 kts | 227° |
| 2026-05-07 18:54 | 39.84938 | -86.11344 | 4317 ft | 220 kts | 229° |
| 2026-05-07 18:55 | 39.83844 | -86.12754 | 4069 ft | 222 kts | 228° |
| 2026-05-07 18:55 | 39.82750 | -86.14151 | 3781 ft | 218 kts | 229° |
| 2026-05-07 18:55 | 39.81686 | -86.15523 | 3521 ft | 210 kts | 229° |
| 2026-05-07 18:55 | 39.80667 | -86.16825 | 3237 ft | 199 kts | 229° |
| 2026-05-07 18:56 | 39.79722 | -86.18032 | 2995 ft | 182 kts | 228° |
| 2026-05-07 18:56 | 39.78851 | -86.19148 | 2767 ft | 170 kts | 228° |
| 2026-05-07 18:56 | 39.78013 | -86.20228 | 2529 ft | 169 kts | 229° |
| 2026-05-07 18:56 | 39.77209 | -86.21279 | 2327 ft | 160 kts | 229° |
| 2026-05-07 18:57 | 39.76431 | -86.22267 | 2099 ft | 152 kts | 227° |
| 2026-05-07 18:57 | 39.75703 | -86.23192 | 1910 ft | 147 kts | 228° |
| 2026-05-07 18:57 | 39.74966 | -86.24126 | 1689 ft | 147 kts | 229° |
| 2026-05-07 18:57 | 39.74232 | -86.25073 | 1469 ft | 150 kts | 228° |
| 2026-05-07 18:58 | 39.73468 | -86.26048 | 1268 ft | 157 kts | 226° |
| 2026-05-07 18:58 | 39.72691 | -86.27040 | 1039 ft | 156 kts | 229° |
| 2026-05-07 18:58 | 39.71917 | -86.28018 | 836 ft | 155 kts | 228° |
| 2026-05-07 18:58 | 39.71174 | -86.28975 | 787 ft | 132 kts | 224° |
| 2026-05-07 18:59 | 39.70684 | -86.29599 | 786 ft | 65 kts | 224° |
| 2026-05-07 18:59 | 39.70440 | -86.29906 | 787 ft | 26 kts | 225° |
| 2026-05-07 18:59 | 39.70356 | -86.29985 | 786 ft | 13 kts | 168° |
| 2026-05-07 18:59 | 39.70291 | -86.29914 | 786 ft | 11 kts | 135° |
| 2026-05-07 19:00 | 39.70264 | -86.29839 | 786 ft | 10 kts | 65° |
| 2026-05-07 19:00 | 39.70313 | -86.29774 | 786 ft | 10 kts | 43° |
| 2026-05-07 19:00 | 39.70369 | -86.29703 | 786 ft | 13 kts | 44° |
| 2026-05-07 19:00 | 39.70443 | -86.29607 | 786 ft | 15 kts | 44° |
| 2026-05-07 19:01 | 39.70511 | -86.29529 | 786 ft | 13 kts | 33° |
| 2026-05-07 19:01 | 39.70598 | -86.29479 | 786 ft | 14 kts | 22° |
| 2026-05-07 19:01 | 39.70678 | -86.29408 | 786 ft | 14 kts | 43° |
| 2026-05-07 19:01 | 39.70748 | -86.29318 | 786 ft | 13 kts | 44° |
| 2026-05-07 19:02 | 39.70811 | -86.29239 | 785 ft | 13 kts | 44° |
| 2026-05-07 19:02 | 39.70875 | -86.29158 | 786 ft | 14 kts | 44° |
| 2026-05-07 19:02 | 39.70954 | -86.29057 | 786 ft | 18 kts | 44° |
| 2026-05-07 19:02 | 39.71057 | -86.28926 | 786 ft | 23 kts | 44° |
| 2026-05-07 19:03 | 39.71178 | -86.28771 | 788 ft | 26 kts | 44° |
| 2026-05-07 19:03 | 39.71313 | -86.28601 | 786 ft | 27 kts | 44° |
| 2026-05-07 19:03 | 39.71422 | -86.28461 | 786 ft | 16 kts | 45° |
| 2026-05-07 19:03 | 39.71466 | -86.28402 | 786 ft | 4 kts | 54° |
| 2026-05-07 19:04 | 39.71466 | -86.28354 | 786 ft | 7 kts | 119° |
| 2026-05-07 19:04 | 39.71426 | -86.28302 | 786 ft | 9 kts | 136° |
| 2026-05-07 19:04 | 39.71380 | -86.28272 | 785 ft | 6 kts | 154° |
| 2026-05-07 19:04 | 39.71346 | -86.28237 | 785 ft | 3 kts | 135° |
| 2026-05-07 19:05 | 39.71330 | -86.28217 | 785 ft | 3 kts | 135° |
| 2026-05-07 19:05 | 39.71325 | -86.28209 | 785 ft | 0 kts | 135° |